Glencoe, MN

9:54 PM CST on December 22, 2014 (GMT -0600)
Glencoe Municipal | Change Station
CLOSE
Current Station
Airport
Location: Glencoe,
Elevation: 991 ft
Nearby Weather Stations

Elev 991 ft 44.76 °N, 94.09 °W | Updated 20 minutes ago

Mostly Cloudy
Mostly Cloudy
--
Feels Like --
N
8
Wind Variable Wind from ENE

Today
High -- | Low -- °F
--% Chance of Precip.
Yesterday
High -- | Low -- °F
Precip. -- in
7:51 AM 4:39 PM
New Moon, 2% visible
Pressure 29.59 in
Visibility 4.0 miles
Clouds Overcast 700 ft
Dew Point Not available.
Humidity Not available.
Rainfall 0.20 in
Snow Depth Not available.
UV 0 out of 12
Pollen .10 out of 12
Air Quality Not available.
Flu Activity Not available.
METAR KGYL 230334Z AUTO 07007KT 4SM -DZ OVC007 02/03 A2959 RMK AO2 T00230025

More Conditions Fewer Conditions

Pressure 29.59 in
Visibility 4.0 miles
Clouds Overcast 700 ft
Dew Point Not available.
Humidity Not available.
Rainfall 0.20 in
Snow Depth Not available.
UV 0 out of 12
Pollen .10 out of 12
Air Quality Not available.
Flu Activity Not available.
METAR KGYL 230334Z AUTO 07007KT 4SM -DZ OVC007 02/03 A2959 RMK AO2 T00230025

More Conditions Fewer Conditions

10-Day Weather Forecast

Almanac

Astronomy

Dec. 22, 2014 Rise Set
Actual Time
Civil Twilight
Nautical Twilight
Astronomical Twilight
Moon
Length of Visible Light
Length of Day
Tomorrow will be .
, % of the Moon is Illuminated

Today's Extremes

State Highs State Lows

Community

WunderPhotos

Upload Photos

1,779,764 photos uploaded!

WunderBlogs® & News

Nearby

Air Quality

  Air Quality AQ Index Pollutant
Not available.

Snow Depth

Station Depth Elevation

Earthquake Activity

City Distance Mag. Time & Date
Minimum magnitude displayed is 2.5.

Coastal Water Temperatures

Place Temperature

Nearby Weather Stations